Time,TemperatureF,DewpointF,PressureIn,WindDirection,WindDirectionDegrees,WindSpeedMPH,WindSpeedGustMPH,Humidity,HourlyPrecipIn,Conditions,Clouds,dailyrainin,SoftwareType,DateUTC
2013-07-01 00:01:00,80.0,57.0,29.88,NE,54,6.0,12.0,46,0.00,,,0.00,,2013-07-01 05:01:00,
2013-07-01 00:11:00,79.0,56.0,29.88,NE,54,3.0,5.0,46,0.00,,,0.00,,2013-07-01 05:11:00,
2013-07-01 00:22:00,79.0,56.0,29.89,NE,53,2.0,5.0,46,0.00,,,0.00,,2013-07-01 05:22:00,
2013-07-01 00:33:00,79.0,57.0,29.89,NE,52,1.0,3.0,47,0.00,,,0.00,,2013-07-01 05:33:00,
2013-07-01 00:42:00,78.0,57.0,29.89,NE,51,0.0,3.0,48,0.00,,,0.00,,2013-07-01 05:42:00,
2013-07-01 00:52:00,78.0,57.0,29.90,NE,51,1.0,3.0,48,0.00,,,0.00,,2013-07-01 05:52:00,
2013-07-01 01:02:00,78.0,57.0,29.90,NE,51,1.0,5.0,49,0.00,,,0.00,,2013-07-01 06:02:00,
2013-07-01 01:12:00,78.0,58.0,29.90,NE,51,1.0,5.0,50,0.00,,,0.00,,2013-07-01 06:12:00,
2013-07-01 01:24:00,77.0,57.0,29.90,NE,51,0.0,2.0,50,0.00,,,0.00,,2013-07-01 06:24:00,
2013-07-01 01:33:00,77.0,58.0,29.90,NE,51,0.0,0.0,52,0.00,,,0.00,,2013-07-01 06:33:00,
2013-07-01 01:43:00,76.0,58.0,29.89,NE,51,0.0,2.0,53,0.00,,,0.00,,2013-07-01 06:43:00,
2013-07-01 01:53:00,75.0,57.0,29.89,NE,51,3.0,3.0,54,0.00,,,0.00,,2013-07-01 06:53:00,
2013-07-01 02:01:00,75.0,58.0,29.89,NE,51,2.0,3.0,56,0.00,,,0.00,,2013-07-01 07:01:00,
2013-07-01 02:11:00,74.0,58.0,29.90,NE,51,4.0,5.0,57,0.00,,,0.00,,2013-07-01 07:11:00,
2013-07-01 02:22:00,74.0,58.0,29.90,NE,51,3.0,6.0,58,0.00,,,0.00,,2013-07-01 07:22:00,
2013-07-01 02:33:00,74.0,58.0,29.89,NE,50,3.0,5.0,58,0.00,,,0.00,,2013-07-01 07:33:00,
2013-07-01 02:43:00,73.0,57.0,29.90,NE,50,3.0,3.0,58,0.00,,,0.00,,2013-07-01 07:43:00,
2013-07-01 02:53:00,73.0,58.0,29.89,NE,50,3.0,5.0,59,0.00,,,0.00,,2013-07-01 07:53:00,
2013-07-01 03:01:00,73.0,58.0,29.90,NE,50,5.0,6.0,59,0.00,,,0.00,,2013-07-01 08:01:00,
2013-07-01 03:11:00,73.0,58.0,29.90,NE,49,5.0,6.0,59,0.00,,,0.00,,2013-07-01 08:11:00,
2013-07-01 03:22:00,73.0,58.0,29.90,NE,34,5.0,6.0,59,0.00,,,0.00,,2013-07-01 08:22:00,
2013-07-01 03:33:00,73.0,58.0,29.90,NNE,27,4.0,6.0,59,0.00,,,0.00,,2013-07-01 08:33:00,
2013-07-01 03:42:00,73.0,58.0,29.90,North,5,5.0,7.0,59,0.00,,,0.00,,2013-07-01 08:42:00,
2013-07-01 03:52:00,73.0,58.0,29.90,North,5,3.0,6.0,60,0.00,,,0.00,,2013-07-01 08:52:00,
2013-07-01 04:02:00,73.0,59.0,29.90,North,0,6.0,8.0,61,0.00,,,0.00,,2013-07-01 09:02:00,
2013-07-01 04:11:00,72.0,58.0,29.90,North,355,6.0,8.0,62,0.00,,,0.00,,2013-07-01 09:11:00,
2013-07-01 04:22:00,72.0,59.0,29.90,North,355,4.0,7.0,63,0.00,,,0.00,,2013-07-01 09:22:00,
2013-07-01 04:34:00,71.0,58.0,29.90,North,355,3.0,7.0,64,0.00,,,0.00,,2013-07-01 09:34:00,
2013-07-01 04:43:00,71.0,59.0,29.90,North,355,3.0,6.0,66,0.00,,,0.00,,2013-07-01 09:43:00,
2013-07-01 04:53:00,71.0,59.0,29.90,North,355,2.0,6.0,66,0.00,,,0.00,,2013-07-01 09:53:00,
2013-07-01 05:03:00,70.0,59.0,29.91,North,355,5.0,6.0,67,0.00,,,0.00,,2013-07-01 10:03:00,
2013-07-01 05:11:00,70.0,59.0,29.91,North,355,2.0,5.0,68,0.00,,,0.00,,2013-07-01 10:11:00,
2013-07-01 05:22:00,70.0,59.0,29.91,North,355,1.0,3.0,68,0.00,,,0.00,,2013-07-01 10:22:00,
2013-07-01 05:33:00,70.0,59.0,29.91,North,355,2.0,3.0,68,0.00,,,0.00,,2013-07-01 10:33:00,
2013-07-01 05:42:00,70.0,59.0,29.91,North,355,2.0,3.0,69,0.00,,,0.00,,2013-07-01 10:42:00,
2013-07-01 05:52:00,70.0,60.0,29.92,North,355,2.0,5.0,70,0.00,,,0.00,,2013-07-01 10:52:00,
2013-07-01 06:02:00,70.0,60.0,29.93,North,355,2.0,5.0,70,0.00,,,0.00,,2013-07-01 11:02:00,
2013-07-01 06:11:00,70.0,60.0,29.93,North,355,2.0,5.0,70,0.00,,,0.00,,2013-07-01 11:11:00,
2013-07-01 06:22:00,70.0,60.0,29.93,North,355,3.0,5.0,71,0.00,,,0.00,,2013-07-01 11:22:00,
2013-07-01 06:33:00,69.0,59.0,29.93,North,355,3.0,5.0,71,0.00,,,0.00,,2013-07-01 11:33:00,
2013-07-01 06:43:00,69.0,59.0,29.94,North,355,2.0,6.0,71,0.00,,,0.00,,2013-07-01 11:43:00,
2013-07-01 06:52:00,69.0,59.0,29.94,North,351,2.0,3.0,71,0.00,,,0.00,,2013-07-01 11:52:00,
2013-07-01 07:01:00,69.0,59.0,29.95,NNW,348,3.0,6.0,71,0.00,,,0.00,,2013-07-01 12:01:00,
2013-07-01 07:11:00,69.0,59.0,29.95,NNW,347,2.0,5.0,71,0.00,,,0.00,,2013-07-01 12:11:00,
2013-07-01 07:22:00,69.0,59.0,29.96,NNW,347,1.0,3.0,71,0.00,,,0.00,,2013-07-01 12:22:00,
2013-07-01 07:33:00,69.0,59.0,29.96,NNW,346,2.0,5.0,71,0.00,,,0.00,,2013-07-01 12:33:00,
2013-07-01 07:43:00,69.0,59.0,29.96,NNW,346,2.0,6.0,71,0.00,,,0.00,,2013-07-01 12:43:00,
2013-07-01 07:53:00,69.0,59.0,29.97,NNW,344,3.0,6.0,71,0.00,,,0.00,,2013-07-01 12:53:00,
2013-07-01 08:01:00,70.0,60.0,29.97,NNW,344,2.0,5.0,71,0.00,,,0.00,,2013-07-01 13:01:00,
2013-07-01 08:12:00,70.0,60.0,29.97,NNW,337,3.0,8.0,70,0.00,,,0.00,,2013-07-01 13:12:00,
2013-07-01 08:23:00,70.0,59.0,29.97,NW,322,3.0,7.0,68,0.00,,,0.00,,2013-07-01 13:23:00,
2013-07-01 08:33:00,70.0,59.0,29.97,NW,317,2.0,6.0,68,0.00,,,0.00,,2013-07-01 13:33:00,
2013-07-01 08:43:00,71.0,59.0,29.98,NNW,331,2.0,6.0,67,0.00,,,0.00,,2013-07-01 13:43:00,
2013-07-01 08:53:00,71.0,59.0,29.98,NNW,333,6.0,9.0,66,0.00,,,0.00,,2013-07-01 13:53:00,
2013-07-01 09:01:00,71.0,59.0,29.98,NNW,330,6.0,9.0,66,0.00,,,0.00,,2013-07-01 14:01:00,
2013-07-01 09:11:00,71.0,59.0,29.98,NW,319,3.0,7.0,66,0.00,,,0.00,,2013-07-01 14:11:00,
2013-07-01 09:22:00,72.0,60.0,29.98,NW,323,2.0,7.0,65,0.00,,,0.00,,2013-07-01 14:22:00,
2013-07-01 09:34:00,73.0,60.0,29.98,NNW,340,5.0,10.0,63,0.00,,,0.00,,2013-07-01 14:34:00,
2013-07-01 09:43:00,74.0,61.0,29.98,North,0,4.0,7.0,63,0.00,,,0.00,,2013-07-01 14:43:00,
2013-07-01 09:52:00,73.0,60.0,29.98,NNW,331,5.0,9.0,63,0.00,,,0.00,,2013-07-01 14:52:00,
2013-07-01 10:02:00,73.0,60.0,29.98,NNW,345,5.0,9.0,64,0.00,,,0.00,,2013-07-01 15:02:00,
2013-07-01 10:11:00,74.0,61.0,29.98,NNW,346,5.0,9.0,63,0.00,,,0.00,,2013-07-01 15:11:00,
2013-07-01 10:23:00,75.0,62.0,29.98,NW,319,5.0,10.0,63,0.00,,,0.00,,2013-07-01 15:23:00,
2013-07-01 10:34:00,76.0,62.0,29.98,NW,321,6.0,10.0,61,0.00,,,0.00,,2013-07-01 15:34:00,
2013-07-01 10:43:00,76.0,62.0,29.98,NW,322,6.0,9.0,62,0.00,,,0.00,,2013-07-01 15:43:00,
2013-07-01 10:52:00,77.0,62.0,29.98,NNW,346,6.0,10.0,60,0.00,,,0.00,,2013-07-01 15:52:00,
2013-07-01 11:01:00,78.0,62.0,29.98,NNW,334,5.0,8.0,59,0.00,,,0.00,,2013-07-01 16:01:00,
2013-07-01 11:11:00,78.0,62.0,29.98,NW,315,5.0,9.0,58,0.00,,,0.00,,2013-07-01 16:11:00,
2013-07-01 11:22:00,79.0,62.0,29.99,NNW,327,8.0,13.0,57,0.00,,,0.00,,2013-07-01 16:22:00,
2013-07-01 11:33:00,79.0,62.0,29.98,NNW,342,4.0,9.0,56,0.00,,,0.00,,2013-07-01 16:33:00,
2013-07-01 11:44:00,79.0,61.0,29.98,North,354,7.0,12.0,54,0.00,,,0.00,,2013-07-01 16:44:00,
2013-07-01 11:53:00,80.0,61.0,29.98,NNW,348,10.0,14.0,52,0.00,,,0.00,,2013-07-01 16:53:00,
2013-07-01 12:02:00,79.0,60.0,29.98,NNW,340,6.0,12.0,53,0.00,,,0.00,,2013-07-01 17:02:00,
2013-07-01 12:12:00,79.0,60.0,29.98,NW,316,7.0,10.0,52,0.00,,,0.00,,2013-07-01 17:12:00,
2013-07-01 12:23:00,80.0,59.0,29.98,NNW,339,8.0,13.0,48,0.00,,,0.00,,2013-07-01 17:23:00,
2013-07-01 12:33:00,80.0,57.0,29.98,NNW,327,11.0,16.0,46,0.00,,,0.00,,2013-07-01 17:33:00,
2013-07-01 12:43:00,81.0,58.0,29.98,NNW,342,9.0,20.0,45,0.00,,,0.00,,2013-07-01 17:43:00,
2013-07-01 12:53:00,81.0,58.0,29.97,North,350,7.0,12.0,45,0.00,,,0.00,,2013-07-01 17:53:00,
2013-07-01 13:02:00,82.0,59.0,29.97,North,6,5.0,12.0,45,0.00,,,0.00,,2013-07-01 18:02:00,
2013-07-01 13:11:00,82.0,59.0,29.97,NNW,347,9.0,14.0,45,0.00,,,0.00,,2013-07-01 18:11:00,
2013-07-01 13:22:00,82.0,59.0,29.97,NW,312,7.0,20.0,45,0.00,,,0.00,,2013-07-01 18:22:00,
2013-07-01 13:33:00,82.0,59.0,29.97,NW,317,7.0,12.0,45,0.00,,,0.00,,2013-07-01 18:33:00,
2013-07-01 13:43:00,82.0,59.0,29.97,NW,318,9.0,20.0,45,0.00,,,0.00,,2013-07-01 18:43:00,
2013-07-01 13:52:00,83.0,58.0,29.97,NNE,16,6.0,9.0,43,0.00,,,0.00,,2013-07-01 18:52:00,
2013-07-01 14:01:00,83.0,58.0,29.97,NNW,337,7.0,20.0,43,0.00,,,0.00,,2013-07-01 19:01:00,
2013-07-01 14:11:00,83.0,59.0,29.96,NW,323,7.0,12.0,44,0.00,,,0.00,,2013-07-01 19:11:00,
2013-07-01 14:21:00,82.0,59.0,29.96,NW,309,10.0,15.0,45,0.00,,,0.00,,2013-07-01 19:21:00,
2013-07-01 14:33:00,83.0,59.0,29.96,NNW,336,12.0,16.0,45,0.00,,,0.00,,2013-07-01 19:33:00,
2013-07-01 14:44:00,84.0,59.0,29.95,NNE,22,6.0,12.0,43,0.00,,,0.00,,2013-07-01 19:44:00,
2013-07-01 14:52:00,84.0,58.0,29.95,NNW,332,8.0,20.0,41,0.00,,,0.00,,2013-07-01 19:52:00,
2013-07-01 15:01:00,85.0,57.0,29.95,ENE,58,5.0,21.0,39,0.00,,,0.00,,2013-07-01 20:01:00,
2013-07-01 15:11:00,85.0,58.0,29.95,North,350,6.0,15.0,40,0.00,,,0.00,,2013-07-01 20:11:00,
2013-07-01 15:22:00,85.0,57.0,29.94,NNW,340,6.0,13.0,39,0.00,,,0.00,,2013-07-01 20:22:00,
2013-07-01 15:34:00,85.0,58.0,29.94,NNW,331,10.0,16.0,40,0.00,,,0.00,,2013-07-01 20:34:00,
2013-07-01 15:43:00,86.0,57.0,29.94,NNW,339,6.0,13.0,38,0.00,,,0.00,,2013-07-01 20:43:00,
2013-07-01 15:52:00,86.0,57.0,29.94,NNE,17,7.0,15.0,37,0.00,,,0.00,,2013-07-01 20:52:00,
2013-07-01 16:01:00,86.0,57.0,29.93,NNE,30,7.0,12.0,37,0.00,,,0.00,,2013-07-01 21:01:00,
2013-07-01 16:11:00,86.0,57.0,29.93,North,351,6.0,12.0,37,0.00,,,0.00,,2013-07-01 21:11:00,
2013-07-01 16:23:00,86.0,57.0,29.93,NE,37,7.0,13.0,38,0.00,,,0.00,,2013-07-01 21:23:00,
2013-07-01 16:34:00,86.0,57.0,29.93,North,358,7.0,16.0,38,0.00,,,0.00,,2013-07-01 21:34:00,
2013-07-01 16:43:00,87.0,58.0,29.93,NNW,334,6.0,14.0,38,0.00,,,0.00,,2013-07-01 21:43:00,
2013-07-01 16:53:00,86.0,57.0,29.93,NNE,24,9.0,21.0,38,0.00,,,0.00,,2013-07-01 21:53:00,
2013-07-01 17:01:00,86.0,58.0,29.93,North,9,8.0,14.0,39,0.00,,,0.00,,2013-07-01 22:01:00,
2013-07-01 17:11:00,86.0,58.0,29.93,NNW,333,11.0,16.0,39,0.00,,,0.00,,2013-07-01 22:11:00,
2013-07-01 17:23:00,86.0,58.0,29.92,NW,321,7.0,14.0,39,0.00,,,0.00,,2013-07-01 22:23:00,
2013-07-01 17:33:00,86.0,58.0,29.92,NE,49,5.0,9.0,39,0.00,,,0.00,,2013-07-01 22:33:00,
2013-07-01 17:42:00,86.0,57.0,29.92,NNW,344,9.0,14.0,38,0.00,,,0.00,,2013-07-01 22:42:00,
2013-07-01 17:53:00,86.0,57.0,29.92,North,354,8.0,15.0,38,0.00,,,0.00,,2013-07-01 22:53:00,
2013-07-01 18:01:00,87.0,57.0,29.91,NNE,28,10.0,16.0,36,0.00,,,0.00,,2013-07-01 23:01:00,
2013-07-01 18:11:00,87.0,57.0,29.91,North,9,7.0,14.0,36,0.00,,,0.00,,2013-07-01 23:11:00,
2013-07-01 18:22:00,87.0,58.0,29.91,North,0,6.0,9.0,37,0.00,,,0.00,,2013-07-01 23:22:00,
2013-07-01 18:33:00,87.0,57.0,29.91,NNE,22,6.0,20.0,36,0.00,,,0.00,,2013-07-01 23:33:00,
2013-07-01 18:44:00,87.0,58.0,29.91,NNW,341,7.0,14.0,38,0.00,,,0.00,,2013-07-01 23:44:00,
2013-07-01 18:53:00,86.0,58.0,29.91,NNW,338,7.0,15.0,39,0.00,,,0.00,,2013-07-01 23:53:00,
2013-07-01 19:01:00,85.0,57.0,29.91,North,355,7.0,12.0,39,0.00,,,0.00,,2013-07-02 00:01:00,
2013-07-01 19:12:00,85.0,57.0,29.92,North,5,5.0,14.0,38,0.00,,,0.00,,2013-07-02 00:12:00,
2013-07-01 19:22:00,86.0,58.0,29.92,NNW,337,3.0,8.0,39,0.00,,,0.00,,2013-07-02 00:22:00,
2013-07-01 19:33:00,86.0,59.0,29.92,North,355,4.0,12.0,40,0.00,,,0.00,,2013-07-02 00:33:00,
2013-07-01 19:43:00,85.0,57.0,29.92,North,10,7.0,13.0,39,0.00,,,0.00,,2013-07-02 00:43:00,
2013-07-01 19:53:00,85.0,57.0,29.92,NNE,15,10.0,14.0,39,0.00,,,0.00,,2013-07-02 00:53:00,
2013-07-01 20:01:00,85.0,57.0,29.92,North,0,5.0,8.0,39,0.00,,,0.00,,2013-07-02 01:01:00,
2013-07-01 20:11:00,85.0,57.0,29.93,North,357,7.0,12.0,39,0.00,,,0.00,,2013-07-02 01:11:00,
2013-07-01 20:22:00,84.0,57.0,29.93,NNE,12,2.0,9.0,40,0.00,,,0.00,,2013-07-02 01:22:00,
2013-07-01 20:33:00,84.0,58.0,29.93,North,5,5.0,9.0,41,0.00,,,0.00,,2013-07-02 01:33:00,
2013-07-01 20:43:00,83.0,58.0,29.93,North,0,7.0,12.0,42,0.00,,,0.00,,2013-07-02 01:43:00,
2013-07-01 20:53:00,83.0,58.0,29.93,North,355,5.0,8.0,43,0.00,,,0.00,,2013-07-02 01:53:00,
2013-07-01 21:02:00,82.0,58.0,29.94,North,5,3.0,7.0,44,0.00,,,0.00,,2013-07-02 02:02:00,
2013-07-01 21:11:00,82.0,58.0,29.94,North,350,6.0,9.0,44,0.00,,,0.00,,2013-07-02 02:11:00,
2013-07-01 21:22:00,81.0,58.0,29.94,NNW,348,5.0,9.0,45,0.00,,,0.00,,2013-07-02 02:22:00,
2013-07-01 21:33:00,81.0,58.0,29.94,NNW,346,3.0,8.0,46,0.00,,,0.00,,2013-07-02 02:33:00,
2013-07-01 21:43:00,81.0,59.0,29.94,NNW,346,3.0,6.0,47,0.00,,,0.00,,2013-07-02 02:43:00,
2013-07-01 21:53:00,80.0,59.0,29.95,NNW,344,5.0,7.0,48,0.00,,,0.00,,2013-07-02 02:53:00,
2013-07-01 22:01:00,80.0,59.0,29.95,NNW,344,3.0,6.0,49,0.00,,,0.00,,2013-07-02 03:01:00,
2013-07-01 22:12:00,79.0,59.0,29.95,NNW,344,0.0,3.0,50,0.00,,,0.00,,2013-07-02 03:12:00,
2013-07-01 22:24:00,79.0,59.0,29.96,NNW,344,0.0,0.0,51,0.00,,,0.00,,2013-07-02 03:24:00,
2013-07-01 22:32:00,79.0,60.0,29.96,NNW,344,2.0,3.0,52,0.00,,,0.00,,2013-07-02 03:32:00,
2013-07-01 22:43:00,78.0,59.0,29.96,NNW,344,1.0,2.0,53,0.00,,,0.00,,2013-07-02 03:43:00,
2013-07-01 22:53:00,78.0,60.0,29.96,NNW,344,0.0,2.0,54,0.00,,,0.00,,2013-07-02 03:53:00,
2013-07-01 23:02:00,77.0,60.0,29.97,NNW,344,0.0,0.0,55,0.00,,,0.00,,2013-07-02 04:02:00,
2013-07-01 23:11:00,77.0,60.0,29.97,NNW,344,0.0,0.0,55,0.00,,,0.00,,2013-07-02 04:11:00,
2013-07-01 23:22:00,77.0,61.0,29.97,NNW,344,0.0,0.0,57,0.00,,,0.00,,2013-07-02 04:22:00,
2013-07-01 23:32:00,77.0,61.0,29.97,NNW,344,0.0,0.0,57,0.00,,,0.00,,2013-07-02 04:32:00,
2013-07-01 23:42:00,77.0,61.0,29.97,NNW,344,0.0,0.0,57,0.00,,,0.00,,2013-07-02 04:42:00,
2013-07-01 23:53:00,76.0,60.0,29.98,NNW,344,0.0,0.0,58,0.00,,,0.00,,2013-07-02 04:53:00,